Time;durP1;ratioP1;P1;durP2;ratioP2;P2;SDS_P1;SDS_P2;PMS_P1;PMS_P2;Temp;Humidity;BMP_temperature;BMP_pressure;BME280_temperature;BME280_humidity;BME280_pressure;Samples;Min_cycle;Max_cycle;Signal;HPM_P1;HPM_P2
2023/09/08 00:00:24;;;;;;;8.45;7.75;;;14.90;99.90;;;15.70;93.71;98204.44;10324486;28;20307;-69
2023/09/08 00:05:28;;;;;;;8.60;7.90;;;14.80;99.90;;;15.70;94.09;98196.72;10320220;28;20248;-69
2023/09/08 00:10:31;;;;;;;8.55;7.70;;;14.80;99.90;;;15.67;94.80;98190.53;10321665;28;20230;-71
2023/09/08 00:15:36;;;;;;;8.25;7.55;;;14.80;99.90;;;15.58;95.30;98193.59;10322498;28;20366;-69
2023/09/08 00:20:39;;;;;;;8.80;7.97;;;14.70;99.90;;;15.48;95.61;98188.84;10323494;28;20238;-70
2023/09/08 00:25:42;;;;;;;8.07;7.38;;;14.70;99.90;;;15.53;95.15;98189.94;10323111;28;20288;-69
2023/09/08 00:30:47;;;;;;;8.02;7.43;;;14.70;99.90;;;15.49;94.82;98181.19;10323613;28;20234;-70
2023/09/08 00:35:50;;;;;;;9.07;8.27;;;14.70;99.90;;;15.41;95.37;98179.09;10325318;28;20613;-69
2023/09/08 00:40:54;;;;;;;8.88;8.02;;;14.50;99.90;;;15.45;95.31;98179.31;10325826;28;20366;-69
2023/09/08 00:46:00;;;;;;;8.43;7.63;;;14.60;99.90;;;15.43;94.64;98169.75;10321607;28;20246;-69
2023/09/08 00:51:05;;;;;;;8.70;7.90;;;14.50;99.90;;;15.42;94.13;98174.00;10318269;28;20223;-71
2023/09/08 00:56:10;;;;;;;8.60;7.88;;;14.50;99.90;;;15.31;94.65;98173.56;10318382;28;20361;-69
2023/09/08 01:01:14;;;;;;;8.80;8.00;;;14.50;99.90;;;15.36;95.01;98178.03;10323643;28;20226;-72
2023/09/08 01:06:18;;;;;;;9.40;8.60;;;14.50;99.90;;;15.35;95.58;98181.44;10318413;28;20227;-69
2023/09/08 01:11:22;;;;;;;8.90;8.10;;;14.50;99.90;;;15.38;95.11;98181.56;10321588;28;20671;-70
2023/09/08 01:16:27;;;;;;;9.38;8.48;;;14.40;99.90;;;15.29;94.86;98179.47;10318741;28;20314;-73
2023/09/08 01:22:18;;;;;;;9.23;8.18;;;14.40;99.90;;;15.25;95.98;98170.72;10318124;28;20246;-73
2023/09/08 01:27:25;;;;;;;9.73;8.90;;;14.50;99.90;;;15.30;97.13;98176.06;10324191;28;20901;-69
2023/09/08 01:32:29;;;;;;;9.90;9.07;;;14.50;99.90;;;15.36;97.22;98178.03;10317534;28;20234;-69
2023/09/08 01:37:32;;;;;;;9.25;8.32;;;14.60;99.90;;;15.41;96.05;98173.97;10320658;28;20289;-70
2023/09/08 01:42:37;;;;;;;9.23;8.35;;;14.50;99.90;;;15.33;96.16;98179.66;10317287;28;20318;-70
2023/09/08 01:47:40;;;;;;;10.35;9.50;;;14.50;99.90;;;15.25;96.51;98169.81;10316651;28;20322;-69
2023/09/08 01:52:43;;;;;;;9.40;8.60;;;14.40;99.90;;;15.23;96.45;98181.78;10320122;28;20231;-70
2023/09/08 01:57:48;;;;;;;9.75;8.77;;;14.40;99.90;;;15.16;97.00;98172.00;10319732;28;20296;-69
2023/09/08 02:02:51;;;;;;;10.30;9.25;;;14.30;99.90;;;15.15;97.38;98181.44;10315960;28;20374;-69
2023/09/08 02:07:55;;;;;;;10.27;9.38;;;14.30;99.90;;;15.18;97.35;98178.97;10320532;28;20235;-69
2023/09/08 02:13:00;;;;;;;9.63;8.75;;;14.40;99.90;;;15.21;97.06;98179.13;10318893;28;20277;-72
2023/09/08 02:18:03;;;;;;;9.98;9.02;;;14.40;99.90;;;15.17;97.58;98177.22;10320578;28;20219;-69
2023/09/08 02:23:08;;;;;;;9.20;8.50;;;14.30;99.90;;;15.04;97.76;98169.78;10320164;28;20258;-73
2023/09/08 02:28:12;;;;;;;9.32;8.55;;;14.20;99.90;;;14.98;97.86;98169.50;10313460;28;20235;-69
2023/09/08 02:33:15;;;;;;;8.35;7.65;;;14.10;99.90;;;14.99;95.45;98171.25;10314799;28;20235;-71
2023/09/08 02:38:19;;;;;;;8.27;7.57;;;13.90;99.90;;;14.93;94.02;98170.97;10321131;28;20748;-69
2023/09/08 02:43:23;;;;;;;8.43;7.72;;;13.70;99.90;;;14.72;95.46;98179.50;10316918;28;20330;-71
2023/09/08 02:48:27;;;;;;;8.68;7.90;;;13.80;99.90;;;14.68;96.30;98179.28;10313299;28;20254;-70
2023/09/08 02:53:30;;;;;;;9.55;8.32;;;13.80;99.90;;;14.62;97.36;98173.06;10315798;28;20713;-71
2023/09/08 02:58:34;;;;;;;9.18;8.13;;;13.80;99.90;;;14.61;97.79;98171.28;10319625;28;20318;-69
2023/09/08 03:03:38;;;;;;;10.48;7.80;;;13.70;99.90;;;14.62;96.24;98167.91;10317642;28;20226;-70
2023/09/08 03:08:42;;;;;;;8.57;7.88;;;13.70;99.90;;;14.51;95.94;98163.94;10316886;28;20281;-69
2023/09/08 03:13:46;;;;;;;9.70;8.70;;;13.60;99.90;;;14.51;96.42;98166.50;10316701;28;20249;-70
2023/09/08 03:18:50;;;;;;;9.95;8.80;;;13.60;99.90;;;14.45;97.42;98160.16;10315958;28;20408;-71
2023/09/08 03:23:53;;;;;;;10.23;9.35;;;13.60;99.90;;;14.50;98.86;98159.56;10312485;28;20230;-72
2023/09/08 03:28:57;;;;;;;10.23;9.38;;;13.70;99.90;;;14.59;99.33;98159.16;10315107;28;20590;-73
2023/09/08 03:34:01;;;;;;;8.90;8.10;;;13.90;99.90;;;14.67;98.22;98162.97;10298915;28;20948;-70
2023/09/08 03:39:05;;;;;;;8.68;7.88;;;13.80;99.90;;;14.64;97.25;98157.69;10301043;28;20227;-70
2023/09/08 03:44:09;;;;;;;9.05;8.15;;;13.70;99.90;;;14.47;97.58;98154.28;10297613;28;20246;-73
2023/09/08 03:49:13;;;;;;;8.90;8.10;;;13.60;99.90;;;14.38;97.81;98149.59;10303524;28;20269;-69
2023/09/08 03:54:16;;;;;;;9.15;8.25;;;13.50;99.90;;;14.40;98.49;98152.25;10299803;28;20749;-69
2023/09/08 03:59:21;;;;;;;8.77;7.97;;;13.60;99.90;;;14.38;98.76;98157.31;10299213;28;20317;-69
2023/09/08 04:04:24;;;;;;;9.35;8.45;;;13.50;99.90;;;14.35;97.76;98154.59;10298923;28;20231;-71
2023/09/08 04:09:28;;;;;;;10.80;9.48;;;13.50;99.90;;;14.28;99.64;98161.94;10300662;28;20241;-73
2023/09/08 04:14:33;;;;;;;8.52;7.72;;;13.50;99.90;;;14.38;98.23;98159.00;10308248;28;20254;-69
2023/09/08 04:19:37;;;;;;;9.23;8.52;;;13.40;99.90;;;14.29;96.81;98162.03;10302869;28;21177;-69
2023/09/08 04:24:40;;;;;;;15.85;13.75;;;13.30;99.90;;;14.22;96.99;98159.97;10307024;28;20277;-71
2023/09/08 04:29:45;;;;;;;72.93;42.97;;;13.20;99.90;;;14.06;97.63;98160.06;10307577;28;20305;-71
2023/09/08 04:34:49;;;;;;;69.30;45.08;;;13.10;99.90;;;14.00;97.61;98154.63;10307883;28;20241;-71
2023/09/08 04:39:52;;;;;;;45.70;30.88;;;13.10;99.90;;;13.96;98.22;98163.84;10314071;28;20227;-71
2023/09/08 04:44:56;;;;;;;22.75;18.85;;;13.10;99.90;;;14.00;97.91;98170.03;10311859;28;20816;-71
2023/09/08 04:50:00;;;;;;;14.35;13.05;;;13.10;99.90;;;13.97;97.54;98173.34;10310887;28;20417;-72
2023/09/08 04:55:03;;;;;;;13.63;12.27;;;13.00;99.90;;;13.84;98.35;98176.13;10306875;28;20242;-73
2023/09/08 05:00:09;;;;;;;16.05;14.35;;;13.00;99.90;;;13.85;98.65;98185.56;10309654;28;20326;-71
2023/09/08 05:05:13;;;;;;;12.13;10.93;;;13.00;99.90;;;13.89;99.26;98182.38;10307628;28;20429;-72
2023/09/08 05:10:16;;;;;;;10.18;9.32;;;13.10;99.90;;;14.06;98.03;98180.63;10307360;28;20235;-71
2023/09/08 05:15:21;;;;;;;10.10;9.23;;;13.30;99.90;;;14.17;99.32;98177.75;10309718;28;20314;-72
2023/09/08 05:20:24;;;;;;;10.70;9.65;;;13.40;99.90;;;14.21;100.00;98181.34;10315934;28;20222;-71
2023/09/08 05:25:27;;;;;;;9.82;8.93;;;13.50;99.90;;;14.33;99.26;98181.03;10315588;28;20230;-70
2023/09/08 05:30:32;;;;;;;10.38;9.38;;;13.50;99.90;;;14.34;99.21;98178.56;10316903;28;20510;-70
2023/09/08 05:35:36;;;;;;;9.88;8.95;;;13.50;99.90;;;14.51;98.22;98191.34;10316561;28;20798;-71
2023/09/08 05:40:39;;;;;;;9.60;8.70;;;13.60;99.90;;;14.74;97.03;98195.91;10321132;28;20251;-71
2023/09/08 05:45:44;;;;;;;9.05;8.25;;;13.80;99.90;;;15.39;95.64;98202.22;10314197;28;20671;-70
2023/09/08 05:50:47;;;;;;;9.55;8.50;;;14.40;99.90;;;16.25;91.71;98197.22;10298785;28;20231;-71
2023/09/08 05:55:50;;;;;;;9.88;8.98;;;15.10;99.90;;;17.22;86.42;98194.09;10294205;28;20757;-70
2023/09/08 06:00:55;;;;;;;9.23;8.43;;;15.80;99.90;;;17.98;80.02;98193.34;10279384;28;20246;-70
2023/09/08 06:05:59;;;;;;;8.32;7.63;;;16.40;99.90;;;18.68;76.87;98193.00;10280542;28;20234;-71
2023/09/08 06:11:02;;;;;;;8.35;7.70;;;16.90;99.90;;;19.25;75.50;98188.59;10282645;28;20231;-70
2023/09/08 06:16:07;;;;;;;9.27;8.48;;;17.70;99.90;;;19.03;74.80;98187.09;10287793;28;20332;-71
2023/09/08 06:21:10;;;;;;;10.20;9.23;;;17.60;99.90;;;18.88;76.15;98184.94;10300227;28;20844;-71
2023/09/08 06:26:14;;;;;;;9.45;8.65;;;17.50;99.90;;;19.74;73.91;98175.31;10282545;28;20246;-70
2023/09/08 06:31:20;;;;;;;8.85;8.05;;;18.30;99.90;;;20.65;70.50;98175.78;10311069;28;20227;-70
2023/09/08 06:36:23;;;;;;;8.77;7.97;;;19.20;99.90;;;21.20;66.65;98180.38;10293471;28;20229;-71
2023/09/08 06:41:27;;;;;;;9.02;8.23;;;19.60;99.90;;;21.65;63.73;98175.22;10291336;28;20231;-70
2023/09/08 06:46:31;;;;;;;8.23;7.45;;;19.90;99.90;;;22.15;62.02;98174.34;10292354;28;20236;-70
2023/09/08 06:51:35;;;;;;;8.60;7.75;;;20.20;99.90;;;22.23;61.65;98181.47;10292338;28;20242;-70
2023/09/08 06:56:38;;;;;;;8.38;7.68;;;20.40;99.90;;;22.66;60.93;98183.84;10296469;28;20703;-70
2023/09/08 07:01:42;;;;;;;8.20;7.40;;;21.00;99.90;;;23.59;56.05;98176.34;10295623;28;20337;-70
2023/09/08 07:06:46;;;;;;;8.35;7.65;;;21.60;99.90;;;24.60;52.97;98185.09;10290444;28;20611;-70
2023/09/08 07:11:49;;;;;;;7.95;7.28;;;22.20;99.90;;;25.00;51.96;98171.38;10289765;28;20381;-70
2023/09/08 07:16:54;;;;;;;8.75;8.00;;;22.30;99.90;;;25.10;51.73;98181.91;10289660;28;20233;-70
2023/09/08 07:21:57;;;;;;;7.97;7.28;;;22.40;99.90;;;25.32;51.88;98179.38;10289769;28;20522;-69
2023/09/08 07:27:01;;;;;;;8.25;7.53;;;23.00;99.90;;;24.80;52.32;98174.75;10291777;28;20426;-68
2023/09/08 07:32:07;;;;;;;8.10;7.40;;;23.00;99.90;;;25.01;52.72;98179.25;10290256;28;20249;-69
2023/09/08 07:37:10;;;;;;;7.45;6.85;;;23.40;99.90;;;24.99;52.65;98167.03;10289484;28;20238;-69
2023/09/08 07:42:14;;;;;;;8.00;7.22;;;23.60;99.90;;;25.06;52.60;98172.25;10290834;28;20230;-69
2023/09/08 07:47:18;;;;;;;7.40;6.72;;;23.80;99.90;;;25.25;52.19;98172.38;10288858;28;20226;-68
2023/09/08 07:52:21;;;;;;;8.35;7.60;;;23.80;99.90;;;25.51;51.08;98170.72;10291238;28;20223;-69
2023/09/08 07:57:25;;;;;;;7.13;6.47;;;24.40;98.90;;;25.80;50.04;98167.28;10285358;28;20697;-70
2023/09/08 08:02:30;;;;;;;7.70;6.90;;;24.80;98.40;;;26.19;49.32;98165.59;10287514;28;20226;-69
2023/09/08 08:07:33;;;;;;;6.93;6.25;;;25.20;97.10;;;26.42;49.34;98163.84;10288221;28;20234;-70
2023/09/08 08:12:37;;;;;;;7.13;6.40;;;25.50;97.10;;;26.82;49.14;98169.03;10297877;28;20272;-69
2023/09/08 08:17:42;;;;;;;7.15;6.50;;;26.00;96.80;;;27.02;47.63;98160.22;10285628;28;20314;-69
2023/09/08 08:22:46;;;;;;;7.35;6.72;;;26.30;95.50;;;26.98;47.23;98161.09;10289939;28;20234;-69
2023/09/08 08:27:50;;;;;;;6.95;6.38;;;26.30;94.70;;;27.11;46.59;98165.44;10282054;28;20850;-66
2023/09/08 08:32:54;;;;;;;7.45;6.75;;;26.40;94.30;;;27.25;46.33;98153.16;10278811;28;20226;-70
2023/09/08 08:38:00;;;;;;;6.78;6.28;;;26.40;94.10;;;27.27;46.82;98161.91;10279999;28;20308;-70
2023/09/08 08:43:03;;;;;;;7.38;6.43;;;26.50;94.30;;;27.92;46.33;98148.38;10281280;28;20926;-71
2023/09/08 08:48:09;;;;;;;7.18;6.57;;;27.20;93.70;;;27.88;45.98;98144.06;10278580;28;20226;-70
2023/09/08 08:53:13;;;;;;;6.90;6.38;;;27.20;93.60;;;27.74;45.92;98141.50;10285263;28;20233;-70
2023/09/08 08:58:19;;;;;;;7.20;6.50;;;27.10;93.40;;;28.26;45.41;98141.09;10276406;28;20623;-70
2023/09/08 09:03:26;;;;;;;6.80;6.30;;;27.50;92.90;;;28.49;45.05;98147.03;10281404;28;20296;-68
2023/09/08 09:08:30;;;;;;;6.80;6.20;;;27.80;92.50;;;28.54;45.53;98141.72;10285974;28;20706;-71
2023/09/08 09:13:33;;;;;;;7.65;7.05;;;27.90;92.80;;;28.49;44.96;98143.53;10284885;28;20365;-70
2023/09/08 09:18:56;;;;;;;7.32;6.72;;;27.80;92.30;;;28.22;46.36;98140.25;10284669;28;20226;-71
2023/09/08 09:23:59;;;;;;;6.63;6.00;;;27.60;93.30;;;28.72;44.45;98140.66;10281415;28;20844;-70
2023/09/08 09:29:03;;;;;;;7.43;6.75;;;28.20;92.20;;;28.46;46.24;98138.31;10280628;28;20282;-70
2023/09/08 09:34:08;;;;;;;7.22;6.47;;;27.90;93.10;;;28.77;45.37;98127.47;10272427;28;20613;-70
2023/09/08 09:39:11;;;;;;;6.80;6.30;;;28.10;93.00;;;29.16;44.91;98131.41;10286132;28;20231;-70
2023/09/08 09:44:15;;;;;;;7.25;6.43;;;28.50;92.20;;;29.00;44.26;98129.81;10275232;28;20284;-71
2023/09/08 09:49:20;;;;;;;6.85;6.25;;;28.30;92.00;;;28.91;44.99;98136.06;10280656;28;20314;-70
2023/09/08 09:54:23;;;;;;;7.28;6.63;;;28.20;92.60;;;29.43;43.95;98135.41;10285005;28;20235;-69
2023/09/08 09:59:27;;;;;;;6.30;5.88;;;28.70;91.70;;;29.57;43.54;98124.69;10285775;28;22340;-67
2023/09/08 10:04:33;;;;;;;6.35;5.85;;;28.70;91.50;;;29.59;42.95;98131.69;10297314;28;20236;-70
2023/09/08 10:09:37;;;;;;;6.80;6.30;;;28.90;91.00;;;29.37;44.81;98130.25;10292196;28;20321;-73
2023/09/08 10:14:43;;;;;;;6.90;6.40;;;28.70;92.20;;;29.27;45.10;98123.34;10281914;28;20309;-70
2023/09/08 10:19:51;;;;;;;6.90;6.40;;;28.60;92.30;;;29.33;44.71;98120.63;10282983;28;20974;-71
2023/09/08 10:24:56;;;;;;;6.97;6.38;;;28.80;91.70;;;29.31;44.05;98114.53;10283846;28;20757;-71
2023/09/08 10:30:03;;;;;;;6.63;6.13;;;28.70;91.60;;;29.41;44.54;98111.72;10281446;28;20227;-70
2023/09/08 10:35:09;;;;;;;6.32;5.82;;;28.80;91.60;;;29.71;43.71;98103.44;10279824;28;20230;-70
2023/09/08 10:40:23;;;;;;;6.80;6.10;;;29.10;91.50;;;29.69;43.78;98099.94;10278576;28;20254;-70
2023/09/08 10:45:27;;;;;;;6.60;6.10;;;29.00;91.10;;;29.62;43.65;98104.41;10280314;28;20714;-70
2023/09/08 10:50:36;;;;;;;7.20;6.60;;;28.90;91.10;;;28.93;45.05;98105.31;10277226;28;20253;-70
2023/09/08 10:55:48;;;;;;;6.65;6.15;;;28.20;92.20;;;28.99;45.93;98092.09;10283190;28;20353;-70
2023/09/08 11:01:17;;;;;;;7.40;6.70;;;28.30;92.70;;;29.02;45.86;98085.94;10284946;28;20226;-71
2023/09/08 11:06:23;;;;;;;6.95;6.35;;;28.50;92.20;;;29.06;47.16;98082.38;10277739;28;20713;-71
2023/09/08 11:11:26;;;;;;;7.30;6.72;;;28.40;93.40;;;29.25;45.20;98077.75;10297042;28;20231;-71
2023/09/08 11:16:33;;;;;;;7.25;6.65;;;28.60;92.00;;;29.19;45.54;98086.59;10300357;28;21564;-71
2023/09/08 11:21:38;;;;;;;7.20;6.53;;;28.60;92.00;;;29.33;45.53;98083.75;10282732;28;20238;-70
2023/09/08 11:26:46;;;;;;;7.03;6.53;;;28.60;92.40;;;29.46;44.54;98082.69;10281778;28;20227;-71
2023/09/08 11:31:53;;;;;;;7.68;7.07;;;28.70;91.80;;;29.10;45.86;98084.97;10270815;28;20237;-70
2023/09/08 11:36:59;;;;;;;7.07;6.47;;;28.40;92.40;;;28.91;46.28;98084.28;10272123;28;20756;-71
2023/09/08 11:42:03;;;;;;;6.90;6.35;;;28.30;92.70;;;28.95;46.87;98082.47;10271016;28;20341;-71
2023/09/08 11:47:09;;;;;;;6.72;6.22;;;28.30;92.90;;;28.94;46.52;98072.84;10271194;28;22384;-71
2023/09/08 11:52:14;;;;;;;7.28;6.57;;;28.30;93.10;;;29.15;46.89;98075.22;10274666;28;20235;-70
2023/09/08 11:57:18;;;;;;;7.20;6.60;;;28.50;93.00;;;29.36;46.55;98070.53;10275864;28;21718;-70
2023/09/08 12:02:21;;;;;;;7.15;6.65;;;28.60;93.30;;;28.91;46.86;98068.50;10277301;28;20227;-71
2023/09/08 12:07:26;;;;;;;6.88;6.38;;;28.30;93.10;;;29.02;46.72;98071.00;10278500;28;20253;-70
2023/09/08 12:12:29;;;;;;;7.85;7.03;;;28.30;93.10;;;29.28;47.20;98069.81;10275644;28;20226;-70
2023/09/08 12:17:33;;;;;;;7.43;6.72;;;28.50;93.20;;;29.31;46.79;98061.84;10280362;28;20253;-70
2023/09/08 12:22:37;;;;;;;6.80;6.30;;;28.50;93.20;;;29.61;46.29;98060.50;10280582;28;20226;-71
2023/09/08 12:27:40;;;;;;;7.30;6.80;;;28.80;92.90;;;29.48;46.69;98065.09;10276929;28;20332;-70
2023/09/08 12:32:46;;;;;;;7.60;7.10;;;28.80;93.00;;;29.38;47.74;98058.22;10273857;28;20342;-70
2023/09/08 12:37:58;;;;;;;7.00;6.45;;;28.60;93.60;;;29.16;46.69;98052.41;10277773;28;20258;-70
2023/09/08 12:43:02;;;;;;;7.35;6.85;;;28.50;93.20;;;29.19;47.93;98058.50;10277402;28;20222;-70
2023/09/08 12:48:25;;;;;;;6.78;6.18;;;28.40;93.70;;;29.22;46.33;98052.31;10278277;28;20237;-70
2023/09/08 12:53:34;;;;;;;7.07;6.57;;;28.40;93.00;;;29.28;46.79;98046.09;10279081;28;20845;-70
2023/09/08 12:58:37;;;;;;;7.30;6.63;;;28.50;93.40;;;29.38;46.52;98039.78;10282680;28;20226;-70
2023/09/08 13:03:41;;;;;;;7.60;7.00;;;28.60;93.00;;;29.62;45.82;98036.81;10282246;28;20312;-70
2023/09/08 13:08:45;;;;;;;6.75;6.25;;;28.70;92.50;;;29.36;47.33;98033.66;10283136;28;20226;-71
2023/09/08 13:13:49;;;;;;;7.13;6.50;;;28.60;93.50;;;29.35;46.91;98031.94;10283763;28;22143;-71
2023/09/08 13:18:52;;;;;;;7.13;6.53;;;28.60;93.20;;;29.40;46.51;98032.72;10284286;28;20721;-70
2023/09/08 13:23:56;;;;;;;6.60;6.03;;;28.60;92.80;;;29.41;47.05;98023.94;10280512;28;20234;-71
2023/09/08 13:29:00;;;;;;;6.85;6.35;;;28.60;93.70;;;29.39;45.44;98017.84;10281454;28;20753;-71
2023/09/08 13:34:03;;;;;;;6.75;6.25;;;28.50;92.30;;;29.27;46.07;98007.47;10279603;28;20650;-70
2023/09/08 13:39:08;;;;;;;7.32;6.60;;;28.40;92.50;;;29.50;45.60;98012.38;10281947;28;20427;-71
2023/09/08 13:44:11;;;;;;;7.32;6.72;;;28.60;92.30;;;29.71;44.72;98008.56;10294371;28;20227;-71
2023/09/08 13:49:15;;;;;;;7.70;7.10;;;28.80;91.90;;;29.53;44.45;98013.22;10279078;28;20717;-71
2023/09/08 13:54:21;;;;;;;7.65;7.05;;;28.70;91.70;;;29.45;45.33;97991.38;10282179;28;20710;-71
2023/09/08 13:59:28;;;;;;;6.78;6.28;;;28.60;92.20;;;29.68;45.17;97998.94;10285518;28;20233;-71
2023/09/08 14:04:39;;;;;;;7.00;6.40;;;28.80;92.00;;;29.69;43.90;97989.25;10278343;28;20226;-71
2023/09/08 14:09:45;;;;;;;6.13;5.70;;;28.90;91.20;;;29.78;44.30;97991.72;10286833;28;20745;-71
2023/09/08 14:14:51;;;;;;;6.38;5.88;;;28.80;91.70;;;29.77;44.53;97992.63;10283779;28;20222;-71
2023/09/08 14:19:54;;;;;;;6.68;6.07;;;28.90;91.40;;;29.72;44.77;97983.94;10286355;28;20317;-71
2023/09/08 14:24:59;;;;;;;8.00;7.40;;;28.90;91.50;;;29.76;43.62;97990.88;10280856;28;20234;-73
2023/09/08 14:30:03;;;;;;;121.35;87.47;;;28.90;91.00;;;29.62;45.65;97989.38;10293986;28;21833;-74
2023/09/08 14:35:07;;;;;;;169.20;131.45;;;28.60;92.20;;;29.54;45.45;97999.13;10289597;28;20230;-73
2023/09/08 14:40:13;;;;;;;56.30;45.55;;;28.50;91.90;;;29.47;44.70;97989.56;10285272;28;20237;-73
2023/09/08 14:45:16;;;;;;;63.33;53.72;;;28.50;91.70;;;29.45;44.83;97985.25;10284613;28;20262;-73
2023/09/08 14:50:20;;;;;;;45.83;40.92;;;28.50;91.70;;;29.58;44.32;97984.13;10283275;28;20723;-73
2023/09/08 14:55:25;;;;;;;65.35;56.75;;;28.60;91.30;;;29.66;44.32;97989.31;10284108;28;20246;-73
2023/09/08 15:00:28;;;;;;;138.95;123.85;;;28.70;91.20;;;29.46;44.62;97982.59;10286077;28;20733;-73
2023/09/08 15:05:32;;;;;;;41.22;37.15;;;28.50;91.90;;;29.66;44.62;97981.41;10284229;28;20575;-73
2023/09/08 15:10:36;;;;;;;49.65;44.42;;;28.70;91.40;;;29.39;45.69;97978.31;10282781;28;20770;-73
2023/09/08 15:15:40;;;;;;;36.78;33.00;;;28.50;92.10;;;29.48;44.83;97978.16;10281948;28;20235;-73
2023/09/08 15:20:52;;;;;;;36.13;32.42;;;28.50;91.60;;;29.25;45.39;97972.41;10287769;28;20253;-74
2023/09/08 15:25:58;;;;;;;22.75;20.65;;;28.30;92.20;;;29.19;46.04;97974.25;10296955;28;20325;-72
2023/09/08 15:31:01;;;;;;;27.02;24.30;;;28.20;92.20;;;29.05;46.57;97968.31;10294351;28;20230;-75
2023/09/08 15:36:07;;;;;;;27.13;24.38;;;28.10;92.60;;;28.95;46.75;97970.16;10296071;28;20301;-72
2023/09/08 15:41:18;;;;;;;14.45;13.07;;;27.90;92.90;;;29.05;46.11;97980.63;10277987;28;20365;-71
2023/09/08 15:46:22;;;;;;;15.07;13.65;;;28.00;92.20;;;28.98;46.38;97978.00;10286976;28;20325;-71
2023/09/08 15:51:25;;;;;;;7.65;6.95;;;27.90;92.40;;;28.89;46.24;97969.41;10289901;28;20621;-71
2023/09/08 15:56:30;;;;;;;9.05;8.13;;;28.00;92.60;;;28.93;46.46;97968.44;10288004;28;20229;-72
2023/09/08 16:01:33;;;;;;;14.45;13.15;;;27.90;92.40;;;29.28;44.90;97972.38;10278528;28;20235;-71
2023/09/08 16:06:37;;;;;;;11.68;10.68;;;28.20;91.70;;;29.35;44.81;97971.34;10278494;28;21099;-71
2023/09/08 16:11:42;;;;;;;12.15;10.73;;;28.30;91.70;;;29.26;45.81;97963.59;10274045;28;20237;-71
2023/09/08 16:16:45;;;;;;;7.60;6.90;;;28.20;92.00;;;29.19;46.53;97961.06;10273150;28;20233;-72
2023/09/08 16:21:48;;;;;;;14.15;12.65;;;28.20;92.60;;;29.05;47.59;97965.69;10273462;28;22174;-72
2023/09/08 16:26:54;;;;;;;9.27;8.48;;;28.00;93.60;;;28.89;47.44;97962.38;10275920;28;20353;-71
2023/09/08 16:31:57;;;;;;;9.90;9.00;;;28.00;93.40;;;28.80;49.59;97956.38;10282234;28;20234;-71
2023/09/08 16:37:00;;;;;;;8.00;7.30;;;27.80;94.70;;;28.90;49.50;97960.59;10282265;28;20230;-71
2023/09/08 16:42:05;;;;;;;8.15;7.45;;;27.90;95.10;;;28.58;51.06;97959.28;10286710;28;20325;-72
2023/09/08 16:47:08;;;;;;;9.60;8.70;;;27.70;95.80;;;28.45;52.43;97969.13;10294857;28;21321;-71
2023/09/08 16:52:12;;;;;;;8.65;7.78;;;27.50;96.60;;;28.49;52.79;97965.53;10290663;28;20461;-72
2023/09/08 16:57:16;;;;;;;7.78;7.18;;;27.50;97.40;;;28.15;54.28;97967.66;10288896;28;20237;-71
2023/09/08 17:02:20;;;;;;;8.15;7.40;;;27.20;98.20;;;28.04;54.48;97967.81;10290920;28;20237;-72
2023/09/08 17:07:23;;;;;;;7.75;7.03;;;27.00;98.60;;;28.06;55.69;97975.66;10289482;28;20296;-72
2023/09/08 17:12:28;;;;;;;7.47;6.88;;;26.90;99.30;;;27.61;57.79;97962.06;10294427;28;20238;-75
2023/09/08 17:17:31;;;;;;;8.00;7.30;;;26.60;99.90;;;27.37;59.00;97971.91;10300820;28;22298;-71
2023/09/08 17:22:34;;;;;;;7.90;7.20;;;26.40;99.90;;;27.25;60.36;97974.66;10298797;28;20227;-71
2023/09/08 17:27:43;;;;;;;9.40;8.60;;;26.20;99.90;;;27.00;61.50;97980.91;10295744;28;20250;-71
2023/09/08 17:32:47;;;;;;;8.00;7.40;;;25.90;99.90;;;26.82;62.93;97976.66;10295962;28;20269;-70
2023/09/08 17:37:50;;;;;;;8.45;7.60;;;25.80;99.90;;;26.57;64.61;97982.03;10298382;28;20250;-71
2023/09/08 17:42:55;;;;;;;9.68;8.77;;;25.60;99.90;;;26.32;65.59;97986.47;10295955;28;21140;-71
2023/09/08 17:47:58;;;;;;;8.60;7.90;;;25.30;99.90;;;26.13;66.53;97993.53;10298378;28;20230;-70
2023/09/08 17:53:02;;;;;;;8.63;7.90;;;25.10;99.90;;;25.77;69.96;97997.03;10298553;28;20601;-71
2023/09/08 17:58:07;;;;;;;8.75;8.02;;;24.70;99.90;;;25.61;71.15;98004.94;10301849;28;20258;-71
2023/09/08 18:03:10;;;;;;;10.25;9.35;;;24.50;99.90;;;25.25;73.38;97997.94;10293182;28;20227;-72
2023/09/08 18:08:17;;;;;;;9.68;8.88;;;24.20;99.90;;;24.92;75.27;97996.09;10296907;28;20316;-71
2023/09/08 18:13:23;;;;;;;9.30;8.60;;;23.80;99.90;;;24.69;76.39;98004.75;10296733;28;20256;-71
2023/09/08 18:18:27;;;;;;;9.48;8.68;;;23.60;99.90;;;24.58;76.77;98005.56;10290591;28;20226;-71
2023/09/08 18:23:30;;;;;;;9.43;8.63;;;23.50;99.90;;;24.44;77.21;98009.03;10299784;28;20611;-70
2023/09/08 18:28:35;;;;;;;9.93;9.02;;;23.40;99.90;;;24.35;77.68;98011.56;10295028;28;20230;-70
2023/09/08 18:33:38;;;;;;;8.98;8.23;;;23.30;99.90;;;24.26;78.16;98024.56;10294725;28;20237;-71
2023/09/08 18:38:42;;;;;;;9.35;8.45;;;23.20;99.90;;;24.07;78.67;98023.59;10298494;28;20278;-70
2023/09/08 18:43:47;;;;;;;8.98;8.27;;;23.10;99.90;;;23.89;79.68;98028.69;10293559;28;20719;-70
2023/09/08 18:48:50;;;;;;;9.90;9.00;;;22.80;99.90;;;23.70;80.84;98043.34;10299745;28;20838;-70
2023/09/08 18:53:54;;;;;;;9.07;8.38;;;22.70;99.90;;;23.49;81.41;98050.09;10293229;28;20266;-71
2023/09/08 18:58:59;;;;;;;9.70;8.85;;;22.40;99.90;;;23.37;81.61;98050.88;10292055;28;20227;-70
2023/09/08 19:04:06;;;;;;;9.13;8.32;;;22.30;99.90;;;23.06;83.50;98052.28;10290267;28;20349;-72
2023/09/08 19:09:10;;;;;;;9.00;8.20;;;22.00;99.90;;;22.93;83.81;98056.47;10291010;28;20226;-71
2023/09/08 19:14:15;;;;;;;9.40;8.07;;;21.90;99.90;;;22.82;83.76;98052.00;10292455;28;20241;-71
2023/09/08 19:19:18;;;;;;;9.38;8.57;;;21.70;99.90;;;22.73;83.37;98065.81;10294065;28;20742;-71
2023/09/08 19:24:23;;;;;;;8.93;8.27;;;21.70;99.90;;;22.60;83.71;98069.09;10291854;28;20704;-72
2023/09/08 19:29:28;;;;;;;9.48;8.68;;;21.50;99.90;;;22.57;83.86;98058.63;10289294;28;20227;-72
2023/09/08 19:34:31;;;;;;;9.50;8.80;;;21.50;99.90;;;22.40;84.54;98072.31;10289989;28;20232;-73
2023/09/08 19:39:35;;;;;;;8.90;8.20;;;21.30;99.90;;;22.26;84.58;98068.63;10297793;28;20722;-71
2023/09/08 19:44:40;;;;;;;8.52;7.90;;;21.20;99.90;;;22.17;84.02;98063.28;10288883;28;20227;-71
2023/09/08 19:49:43;;;;;;;8.45;7.75;;;21.10;99.90;;;22.08;83.42;98070.97;10297337;28;20321;-72
2023/09/08 19:54:46;;;;;;;8.93;8.30;;;21.00;99.90;;;21.94;83.39;98069.00;10289486;28;20674;-71
2023/09/08 19:59:51;;;;;;;9.77;8.90;;;20.90;99.90;;;21.86;83.63;98067.13;10289105;28;20223;-72
2023/09/08 20:04:54;;;;;;;9.73;8.85;;;20.80;99.90;;;21.66;84.45;98065.13;10296033;28;20226;-71
2023/09/08 20:09:57;;;;;;;9.05;8.27;;;20.60;99.90;;;21.60;84.19;98062.38;10302280;28;20246;-71
2023/09/08 20:15:02;;;;;;;8.50;7.80;;;20.50;99.90;;;21.50;84.46;98066.56;10300317;28;20231;-71
2023/09/08 20:20:08;;;;;;;9.23;8.43;;;20.40;99.90;;;21.30;85.64;98067.91;10301897;28;20385;-71
2023/09/08 20:25:11;;;;;;;9.25;8.45;;;20.30;99.90;;;21.27;86.08;98067.88;10301001;28;20372;-71
2023/09/08 20:30:16;;;;;;;9.30;8.52;;;20.20;99.90;;;21.02;87.01;98063.94;10301908;28;20576;-71
2023/09/08 20:35:19;;;;;;;9.43;8.52;;;20.00;99.90;;;20.79;87.87;98060.88;10304759;28;21001;-72
2023/09/08 20:40:23;;;;;;;9.90;9.00;;;19.80;99.90;;;20.79;87.69;98060.88;10301002;28;21073;-72
2023/09/08 20:45:27;;;;;;;9.02;8.32;;;19.80;99.90;;;20.61;88.55;98061.41;10300854;28;20346;-71
2023/09/08 20:50:30;;;;;;;10.15;9.15;;;19.60;99.90;;;20.48;89.99;98063.69;10302526;28;20227;-72
2023/09/08 20:55:34;;;;;;;10.00;9.20;;;19.50;99.90;;;20.40;89.93;98066.97;10302161;28;20642;-70
2023/09/08 21:00:38;;;;;;;10.25;9.45;;;19.40;99.90;;;20.36;90.27;98068.63;10299473;28;20366;-70